Change the Weather History Date:

Saturday, March 30, 2013

  Actual Average Record
Temperature  
Mean Temperature 41 °F -  
Max Temperature 49 °F 47 °F 73 °F (1999)
Min Temperature 33 °F 32 °F 17 °F (2011)
Degree Days  
Heating Degree Days 24    
Moisture  
Dew Point 38 °F    
Average Humidity 87    
Maximum Humidity 100    
Minimum Humidity 55    
Precipitation  
Precipitation 0.14 in - - ()
Sea Level Pressure  
Sea Level Pressure 29.90 in    
Wind  
Wind Speed 8 mph (WSW)    
Max Wind Speed 17 mph    
Max Gust Speed 30 mph    
Visibility 6 miles    
Events Rain    
Averages and records for this station are not official NWS values.
T = Trace of Precipitation, MM = Missing Value Source: NWS Daily Summary

Daily Weather History Graph

Daily Weather History Graph

Search for Another Location

Airport or City:

Trip Planner

Search our weather history database for the weather conditions in past years. The results will help you decide how hot, cold, wet, or windy it might be!

Date:

Astronomy

Mar. 30, 2013 Rise Set
Actual Time 6:45 AM CDT 7:25 PM CDT
Civil Twilight 6:16 AM CDT 7:55 PM CDT
Nautical Twilight 5:42 AM CDT 8:29 PM CDT
Astronomical Twilight 5:06 AM CDT 9:05 PM CDT
Moon 11:41 PM CDT (3/30) 8:33 AM CDT (3/30)
Length of Visible Light 13h 38m
Length of Day
12h 40m
Waning Gibbous, 86% of the Moon is Illuminated
Mar 30
Waning Gibbous
Apr 2
Last Quarter
Apr 10
New
Apr 18
First Quarter
Apr 25
Full

Hourly Weather History & Observations

Time (CDT) Temp. Windchill Dew Point Humidity Pressure Visibility Wind Dir Wind Speed Gust Speed Precip Events Conditions
12:55 AM 33.1 °F 26.9 °F 25.0 °F 72% 30.19 in 10.0 mi SSE 6.9 mph - N/A   Overcast
1:55 AM 34.9 °F 29.0 °F 24.6 °F 66% 30.17 in 10.0 mi SSE 6.9 mph - N/A   Overcast
2:55 AM 36.9 °F 30.7 °F 26.4 °F 66% 30.14 in 10.0 mi SE 8.1 mph - N/A   Overcast
3:55 AM 37.9 °F 32.7 °F 26.4 °F 63% 30.12 in 10.0 mi SSE 6.9 mph - N/A   Overcast
4:55 AM 39.7 °F 33.2 °F 26.1 °F 58% 30.11 in 10.0 mi South 10.4 mph - N/A   Partly Cloudy
5:55 AM 39.4 °F 33.8 °F 26.6 °F 60% 30.08 in 10.0 mi SSE 8.1 mph - N/A   Mostly Cloudy
6:55 AM 38.8 °F 33.2 °F 26.6 °F 61% 30.06 in 10.0 mi SE 8.1 mph - N/A   Overcast
7:55 AM 39.2 °F 33.6 °F 27.3 °F 62% 30.04 in 10.0 mi SE 8.1 mph - N/A   Overcast
8:55 AM 40.8 °F 33.7 °F 28.0 °F 60% 30.01 in 10.0 mi South 12.7 mph - N/A   Scattered Clouds
9:55 AM 42.8 °F 35.4 °F 30.2 °F 61% 29.99 in 10.0 mi South 15.0 mph 21.9 mph N/A   Mostly Cloudy
10:55 AM 46.0 °F 40.2 °F 32.7 °F 60% 29.98 in 10.0 mi South 12.7 mph 19.6 mph N/A   Mostly Cloudy
11:55 AM 48.4 °F - 32.9 °F 55% 29.96 in 10.0 mi SSW 17.3 mph 29.9 mph N/A   Mostly Cloudy
12:55 PM 47.7 °F - 32.4 °F 55% 29.93 in 10.0 mi South 11.5 mph 20.7 mph N/A   Scattered Clouds
1:55 PM 49.5 °F - 34.2 °F 56% 29.91 in 10.0 mi SSW 16.1 mph 27.6 mph N/A   Mostly Cloudy
2:55 PM 48.6 °F - 35.8 °F 61% 29.88 in 10.0 mi SSW 11.5 mph 17.3 mph N/A   Overcast
3:38 PM 48.2 °F - 37.4 °F 66% 29.86 in 10.0 mi South 10.4 mph 17.3 mph N/A   Mostly Cloudy
3:47 PM 48.2 °F - 37.4 °F 66% 29.86 in 10.0 mi SSW 9.2 mph - N/A Rain Light Rain
3:55 PM 47.8 °F - 38.8 °F 71% 29.86 in 10.0 mi SSW 8.1 mph 19.6 mph 0.00 in Rain Light Rain
4:27 PM 44.6 °F 40.2 °F 41.0 °F 87% 29.88 in 2.5 mi West 8.1 mph - N/A Rain Rain
4:29 PM 44.6 °F 40.7 °F 41.0 °F 87% 29.88 in 2.0 mi West 6.9 mph - N/A Rain Rain
4:53 PM 42.8 °F - 42.8 °F 100% 29.88 in 1.8 mi Calm Calm - N/A Rain Rain
4:55 PM 43.7 °F - 42.8 °F 97% 29.88 in 1.8 mi Calm Calm - 0.10 in Rain Rain
5:05 PM 42.8 °F - 42.8 °F 100% 29.86 in 1.8 mi Calm Calm - N/A Rain Light Rain
5:06 PM 42.8 °F 41.1 °F 42.8 °F 100% 29.86 in 2.0 mi Variable 3.5 mph - N/A Rain Light Rain
5:09 PM 44.6 °F 40.7 °F 42.8 °F 93% 29.86 in 2.5 mi SSW 6.9 mph - N/A Rain Light Rain
5:10 PM 44.6 °F 40.7 °F 42.8 °F 93% 29.86 in 3.0 mi SSW 6.9 mph - N/A Rain Light Rain
5:14 PM 44.6 °F 39.7 °F 42.8 °F 93% 29.85 in 4.0 mi South 9.2 mph - N/A Rain Light Rain
5:23 PM 44.6 °F 40.7 °F 42.8 °F 93% 29.85 in 7.0 mi South 6.9 mph - N/A Rain Light Rain
5:44 PM 44.6 °F 40.7 °F 42.8 °F 93% 29.84 in 9.0 mi South 6.9 mph - N/A   Mostly Cloudy
5:55 PM 44.8 °F 39.4 °F 42.6 °F 92% 29.84 in 10.0 mi SSW 10.4 mph - 0.04 in   Overcast
6:14 PM 44.6 °F 39.2 °F 42.8 °F 93% 29.84 in 5.0 mi SW 10.4 mph 18.4 mph N/A   Overcast
6:41 PM 44.6 °F 39.2 °F 42.8 °F 93% 29.84 in 4.0 mi SW 10.4 mph - N/A   Overcast
6:52 PM 44.6 °F 40.2 °F 42.8 °F 93% 29.85 in 5.0 mi SW 8.1 mph - N/A   Overcast
6:55 PM 43.9 °F 39.3 °F 42.8 °F 96% 29.84 in 5.0 mi SW 8.1 mph - N/A   Overcast
7:04 PM 44.6 °F 39.7 °F 42.8 °F 93% 29.84 in 5.0 mi SW 9.2 mph - N/A   Overcast
7:28 PM 42.8 °F 37.0 °F 42.8 °F 100% 29.84 in 8.0 mi WSW 10.4 mph - N/A   Overcast
7:55 PM 42.6 °F 36.8 °F 42.3 °F 99% 29.84 in 8.0 mi West 10.4 mph - N/A   Overcast
8:03 PM 42.8 °F 37.5 °F 41.0 °F 93% 29.85 in 6.0 mi West 9.2 mph - N/A   Overcast
8:05 PM 42.8 °F 37.5 °F 41.0 °F 93% 29.85 in 5.0 mi West 9.2 mph - N/A   Light Drizzle
8:11 PM 42.8 °F 36.2 °F 41.0 °F 93% 29.85 in 4.0 mi WNW 12.7 mph - N/A   Light Drizzle
8:18 PM 41.0 °F 35.2 °F 41.0 °F 100% 29.85 in 3.0 mi WNW 9.2 mph - N/A   Light Drizzle
8:19 PM 41.0 °F 35.8 °F 41.0 °F 100% 29.85 in 3.0 mi WNW 8.1 mph - N/A   Overcast
8:20 PM 41.0 °F 35.8 °F 41.0 °F 100% 29.85 in 2.5 mi WNW 8.1 mph - N/A   Overcast
8:24 PM 41.0 °F 35.8 °F 41.0 °F 100% 29.85 in 2.0 mi WNW 8.1 mph - N/A   Overcast
8:39 PM 41.0 °F 35.2 °F 41.0 °F 100% 29.86 in 2.0 mi WNW 9.2 mph - N/A   Light Drizzle
8:48 PM 41.0 °F 34.7 °F 41.0 °F 100% 29.86 in 2.5 mi WNW 10.4 mph - N/A   Overcast
8:52 PM 41.0 °F 34.7 °F 41.0 °F 100% 29.86 in 3.0 mi WNW 10.4 mph - N/A   Overcast
8:55 PM 40.5 °F 35.1 °F 40.3 °F 99% 29.86 in 3.0 mi WNW 8.1 mph - 0.00 in   Overcast
9:05 PM 41.0 °F 35.2 °F 39.2 °F 93% 29.86 in 3.0 mi West 9.2 mph - N/A   Light Drizzle
9:07 PM 41.0 °F 35.8 °F 39.2 °F 93% 29.86 in 3.0 mi WNW 8.1 mph - N/A   Light Drizzle
9:08 PM 41.0 °F 35.8 °F 39.2 °F 93% 29.86 in 2.5 mi WNW 8.1 mph - N/A   Light Drizzle
9:11 PM 41.0 °F 35.8 °F 39.2 °F 93% 29.86 in 2.5 mi WNW 8.1 mph - N/A   Overcast
9:13 PM 41.0 °F 35.8 °F 39.2 °F 93% 29.86 in 3.0 mi WNW 8.1 mph - N/A   Overcast
9:18 PM 39.2 °F 33.0 °F 39.2 °F 100% 29.86 in 3.0 mi WNW 9.2 mph - N/A   Overcast
9:20 PM 39.2 °F 33.0 °F 39.2 °F 100% 29.86 in 4.0 mi WNW 9.2 mph - N/A   Overcast
9:27 PM 39.2 °F 33.0 °F 39.2 °F 100% 29.86 in 4.0 mi WNW 9.2 mph - N/A   Overcast
9:55 PM 39.6 °F 34.0 °F 39.2 °F 99% 29.86 in 5.0 mi WNW 8.1 mph - 0.00 in   Overcast
10:04 PM 39.2 °F 35.0 °F 39.2 °F 100% 29.86 in 5.0 mi WNW 5.8 mph - N/A   Overcast
10:18 PM 39.2 °F 35.9 °F 39.2 °F 100% 29.86 in 4.0 mi WNW 4.6 mph - N/A   Overcast
10:25 PM 39.2 °F 35.9 °F 39.2 °F 100% 29.86 in 3.0 mi WNW 4.6 mph - N/A   Overcast
10:51 PM 39.2 °F 35.9 °F 37.4 °F 93% 29.86 in 4.0 mi NW 4.6 mph - N/A   Overcast
10:55 PM 38.3 °F 35.9 °F 38.1 °F 99% 29.86 in 3.0 mi NW 3.5 mph - N/A   Overcast
11:38 PM 37.4 °F 32.8 °F 37.4 °F 100% 29.85 in 2.5 mi West 5.8 mph - N/A   Overcast
11:48 PM 35.6 °F 30.7 °F 35.6 °F 100% 29.84 in 3.0 mi West 5.8 mph - N/A   Overcast
11:55 PM 36.0 °F 31.1 °F 35.6 °F 99% 29.84 in 6.0 mi West 5.8 mph - N/A   Overcast